Time;durP1;ratioP1;P1;durP2;ratioP2;P2;SDS_P1;SDS_P2;PMS_P1;PMS_P2;Temp;Humidity;BMP_temperature;BMP_pressure;BME280_temperature;BME280_humidity;BME280_pressure;Samples;Min_cycle;Max_cycle;Signal;HPM_P1;HPM_P2
2022/09/05 00:00:21;;;;;;;13.60;6.68;;;;;;;19.49;100.00;98899.94;4884358;29;20037;-85
2022/09/05 00:03:01;;;;;;;10.80;7.35;;;;;;;19.47;100.00;98883.44;4886374;29;20108;-85
2022/09/05 00:05:48;;;;;;;13.73;7.10;;;;;;;19.54;100.00;98905.28;4870015;29;20044;-85
2022/09/05 00:08:47;;;;;;;12.32;7.45;;;;;;;19.49;100.00;98889.28;4871210;29;20382;-84
2022/09/05 00:11:12;;;;;;;10.27;7.18;;;;;;;19.48;100.00;98901.00;4873239;29;20033;-84
2022/09/05 00:13:43;;;;;;;10.02;7.07;;;;;;;19.48;100.00;98897.53;4872967;29;20491;-84
2022/09/05 00:16:40;;;;;;;9.95;6.82;;;;;;;19.52;100.00;98901.28;4871706;29;20387;-85
2022/09/05 00:19:51;;;;;;;11.10;7.30;;;;;;;19.49;100.00;98899.13;4869215;29;20103;-85
2022/09/05 00:22:38;;;;;;;12.05;7.20;;;;;;;19.53;100.00;98900.22;4887173;29;20059;-85
2022/09/05 00:25:39;;;;;;;12.98;7.18;;;;;;;19.51;100.00;98892.50;4872487;29;20539;-84
2022/09/05 00:28:44;;;;;;;13.60;6.95;;;;;;;19.51;100.00;98886.38;4856262;29;20507;-84
2022/09/05 00:31:10;;;;;;;11.18;6.82;;;;;;;19.43;100.00;98884.97;4890848;29;20044;-85
2022/09/05 00:33:43;;;;;;;10.93;6.50;;;;;;;19.50;100.00;98877.59;4886940;29;20092;-84
2022/09/05 00:37:07;;;;;;;11.05;7.05;;;;;;;19.45;100.00;98861.56;4870851;29;20038;-84
2022/09/05 00:39:41;;;;;;;10.98;7.30;;;;;;;19.32;100.00;98838.09;4870380;29;20124;-85
2022/09/05 00:42:12;;;;;;;11.50;6.53;;;;;;;19.36;100.00;98857.81;4884280;29;20036;-85
2022/09/05 00:44:50;;;;;;;12.50;7.72;;;;;;;19.20;100.00;98840.94;4857970;29;20555;-85
2022/09/05 00:47:34;;;;;;;8.25;6.78;;;;;;;19.24;100.00;98861.44;4869112;29;20044;-84
2022/09/05 00:50:08;;;;;;;11.02;7.10;;;;;;;19.18;100.00;98851.84;4871599;29;20063;-85
2022/09/05 00:52:46;;;;;;;9.35;7.00;;;;;;;19.17;100.00;98847.56;4871908;29;20512;-86
2022/09/05 00:55:15;;;;;;;12.60;7.20;;;;;;;19.24;100.00;98850.81;4886491;29;20047;-85
2022/09/05 00:58:13;;;;;;;14.13;7.25;;;;;;;19.28;100.00;98851.09;4887932;29;20108;-84
2022/09/05 01:00:52;;;;;;;9.15;6.75;;;;;;;19.25;100.00;98844.41;4885693;29;20025;-86
2022/09/05 01:03:33;;;;;;;11.65;6.60;;;;;;;19.22;100.00;98850.25;4867839;29;20395;-86
2022/09/05 01:06:14;;;;;;;12.65;7.10;;;;;;;19.17;100.00;98855.56;4866994;29;20029;-86
2022/09/05 01:08:51;;;;;;;10.63;6.68;;;;;;;19.10;100.00;98862.97;4869994;29;20060;-86
2022/09/05 01:11:28;;;;;;;15.77;7.10;;;;;;;19.14;100.00;98866.72;4851924;29;20041;-85
2022/09/05 01:13:54;;;;;;;10.55;6.90;;;;;;;19.12;100.00;98948.63;4871332;29;20394;-87
2022/09/05 01:16:43;;;;;;;18.52;7.32;;;;;;;19.05;100.00;99027.81;4888313;29;20119;-86
2022/09/05 01:19:26;;;;;;;21.23;8.88;;;;;;;19.03;100.00;99035.25;4886885;29;20037;-85
2022/09/05 01:22:11;;;;;;;;;;;;;;;18.87;100.00;99031.63;4916817;29;20059;-85
2022/09/05 01:25:07;;;;;;;18.08;9.95;;;;;;;18.60;100.00;99035.81;4889585;29;19916;-84
2022/09/05 01:28:00;;;;;;;16.45;9.30;;;;;;;18.61;100.00;99028.66;4887860;29;20040;-86
2022/09/05 01:30:38;;;;;;;18.25;9.55;;;;;;;18.56;100.00;99032.84;4903445;29;21614;-84
2022/09/05 01:33:42;;;;;;;14.77;8.80;;;;;;;18.45;100.00;99019.69;4872865;29;20440;-85
2022/09/05 01:36:22;;;;;;;14.90;8.35;;;;;;;18.38;100.00;99010.06;4889231;29;20040;-85
2022/09/05 01:39:02;;;;;;;14.70;8.88;;;;;;;18.38;100.00;99019.91;4872307;29;20178;-84
2022/09/05 01:41:47;;;;;;;18.42;8.88;;;;;;;18.33;100.00;99033.91;4905261;29;20415;-85
2022/09/05 01:44:19;;;;;;;12.35;8.40;;;;;;;18.24;100.00;99014.13;4917234;29;20037;-85
2022/09/05 01:47:04;;;;;;;15.05;7.82;;;;;;;18.25;100.00;99013.06;4890570;29;20032;-84
2022/09/05 01:49:55;;;;;;;15.85;8.13;;;;;;;18.11;100.00;98992.19;4899270;29;20036;-84
2022/09/05 01:53:02;;;;;;;15.60;9.10;;;;;;;18.11;100.00;98994.84;4890792;29;20032;-85
2022/09/05 01:55:35;;;;;;;17.05;8.27;;;;;;;17.96;100.00;98995.38;4889412;29;20498;-85
2022/09/05 01:58:19;;;;;;;20.00;9.85;;;;;;;18.02;100.00;98985.66;4886108;29;20487;-85
2022/09/05 02:01:13;;;;;;;15.05;9.13;;;;;;;18.11;100.00;98976.25;4903951;29;20036;-85
2022/09/05 02:03:47;;;;;;;14.38;9.32;;;;;;;18.06;100.00;98976.16;4888880;29;20084;-84
2022/09/05 02:06:58;;;;;;;17.52;10.05;;;;;;;17.92;100.00;98969.59;4905129;29;20491;-85
2022/09/05 02:09:45;;;;;;;19.02;10.15;;;;;;;18.00;100.00;98961.19;4908134;29;20127;-85
2022/09/05 02:12:14;;;;;;;16.42;9.98;;;;;;;17.91;100.00;98954.69;4907324;29;20036;-85
2022/09/05 02:14:53;;;;;;;20.13;10.48;;;;;;;17.96;100.00;98947.59;4907358;29;20112;-86
2022/09/05 02:17:29;;;;;;;18.35;11.00;;;;;;;17.94;100.00;98946.25;4906808;29;20081;-85
2022/09/05 02:20:05;;;;;;;16.83;9.73;;;;;;;17.81;100.00;98926.94;4906478;29;20056;-85
2022/09/05 02:22:59;;;;;;;17.52;10.10;;;;;;;17.85;100.00;98922.75;4888024;29;20036;-84
2022/09/05 02:25:39;;;;;;;16.35;9.43;;;;;;;17.82;100.00;98912.63;4907572;29;20504;-84
2022/09/05 02:28:15;;;;;;;15.85;9.68;;;;;;;17.83;100.00;98898.31;4905581;29;20521;-85
2022/09/05 02:30:47;;;;;;;16.02;10.05;;;;;;;17.76;100.00;98903.00;4907447;29;20059;-85
2022/09/05 02:33:19;;;;;;;16.10;9.98;;;;;;;17.81;100.00;98892.44;4887831;29;20107;-84
2022/09/05 02:35:59;;;;;;;20.02;10.70;;;;;;;17.80;100.00;98885.53;4906075;29;20403;-84
2022/09/05 02:38:50;;;;;;;16.63;10.05;;;;;;;17.79;100.00;98902.50;4902861;29;20032;-84
2022/09/05 02:41:31;;;;;;;13.73;10.38;;;;;;;17.81;100.00;98905.72;4885735;29;20512;-83
2022/09/05 02:43:56;;;;;;;14.95;9.35;;;;;;;17.78;100.00;98902.72;4909758;29;20024;-85
2022/09/05 02:46:46;;;;;;;17.13;10.23;;;;;;;17.87;100.00;98916.38;4905265;29;20024;-84
2022/09/05 02:49:15;;;;;;;13.35;10.05;;;;;;;17.91;100.00;98909.56;4886837;29;20036;-84
2022/09/05 02:52:06;;;;;;;16.50;10.80;;;;;;;17.81;100.00;98926.94;4887035;29;20067;-83
2022/09/05 02:54:36;;;;;;;12.13;9.20;;;;;;;17.93;100.00;98936.66;4891396;29;20446;-84
2022/09/05 02:57:02;;;;;;;21.48;10.45;;;;;;;17.86;100.00;98934.19;4885742;29;20059;-85
2022/09/05 03:00:06;;;;;;;17.42;10.50;;;;;;;17.97;100.00;98943.09;4887991;29;20036;-84
2022/09/05 03:02:44;;;;;;;13.95;10.32;;;;;;;17.98;100.00;98920.78;4874228;29;20033;-85
2022/09/05 03:05:20;;;;;;;11.02;9.80;;;;;;;17.96;100.00;98920.25;4907955;29;20043;-84
2022/09/05 03:08:21;;;;;;;15.35;11.75;;;;;;;17.90;100.00;98932.66;4903128;29;20032;-82
2022/09/05 03:11:19;;;;;;;18.70;11.25;;;;;;;17.99;100.00;98944.47;4863904;29;20072;-82
2022/09/05 03:14:06;;;;;;;15.82;10.75;;;;;;;18.06;100.00;98946.16;4904001;29;20028;-83
2022/09/05 03:16:56;;;;;;;18.48;11.70;;;;;;;17.97;100.00;98940.44;4904410;29;20029;-83
2022/09/05 03:20:05;;;;;;;19.17;12.05;;;;;;;17.94;100.00;98915.16;4924460;29;20060;-82
2022/09/05 03:22:48;;;;;;;20.48;11.40;;;;;;;17.90;100.00;98913.28;4898699;29;20036;-82
2022/09/05 03:25:34;;;;;;;;;;;;;;;17.89;100.00;98927.59;4904296;29;20123;-82
2022/09/05 03:28:37;;;;;;;16.52;10.80;;;;;;;17.93;100.00;98939.31;4888185;29;19966;-82
2022/09/05 03:31:12;;;;;;;14.98;11.07;;;;;;;17.94;100.00;98927.66;4905555;29;20036;-82
2022/09/05 03:33:37;;;;;;;17.20;10.95;;;;;;;17.95;100.00;98926.59;4918686;29;20029;-83
2022/09/05 03:36:43;;;;;;;22.33;12.18;;;;;;;17.93;100.00;98923.41;4904519;29;20111;-83
2022/09/05 03:39:08;;;;;;;17.55;12.57;;;;;;;17.97;100.00;98924.50;4904019;29;20035;-84
2022/09/05 03:41:55;;;;;;;16.40;13.25;;;;;;;17.98;100.00;98929.59;4908318;29;20399;-85
2022/09/05 03:44:39;;;;;;;16.45;12.68;;;;;;;18.01;100.00;98930.94;4895688;29;20115;-84
2022/09/05 03:47:08;;;;;;;;;;;;;;;18.07;100.00;98926.50;4909388;29;20534;-83
2022/09/05 03:50:16;;;;;;;21.40;13.27;;;;;;;17.92;100.00;98932.41;4875894;29;20050;-84
2022/09/05 03:53:10;;;;;;;16.33;12.63;;;;;;;17.96;100.00;98933.53;4889572;29;20139;-83
2022/09/05 03:56:01;;;;;;;16.85;13.65;;;;;;;18.01;100.00;98944.19;4905073;29;20091;-84
2022/09/05 03:58:46;;;;;;;20.35;13.48;;;;;;;18.01;100.00;98936.22;4907538;29;20039;-84
2022/09/05 04:01:34;;;;;;;19.15;13.70;;;;;;;18.05;100.00;98941.91;4907650;29;20040;-84
2022/09/05 04:04:41;;;;;;;19.25;13.27;;;;;;;18.02;100.00;98939.75;4906849;29;20032;-85
2022/09/05 04:07:20;;;;;;;19.05;13.50;;;;;;;18.03;100.00;98955.41;4870515;29;20112;-84
2022/09/05 04:09:55;;;;;;;18.70;13.95;;;;;;;18.08;100.00;98963.47;4889297;29;20176;-83
2022/09/05 04:12:30;;;;;;;21.23;15.02;;;;;;;18.05;100.00;98942.69;4898196;29;20045;-83
2022/09/05 04:15:24;;;;;;;25.95;15.15;;;;;;;17.99;100.00;98938.34;4907711;29;20548;-84
2022/09/05 04:17:56;;;;;;;18.50;14.02;;;;;;;17.98;100.00;98937.53;4922389;29;20032;-83
2022/09/05 04:21:01;;;;;;;22.20;14.65;;;;;;;17.85;100.00;98916.66;4891222;29;20060;-84
2022/09/05 04:24:00;;;;;;;16.13;12.95;;;;;;;17.97;100.00;98933.25;4881953;29;20045;-83
2022/09/05 04:26:50;;;;;;;18.27;14.00;;;;;;;17.99;100.00;98943.66;4920615;29;20422;-83
2022/09/05 04:29:27;;;;;;;16.60;14.35;;;;;;;17.84;100.00;98936.28;4907680;29;20734;-84
2022/09/05 04:32:14;;;;;;;21.88;14.48;;;;;;;17.93;100.00;98929.50;4909335;29;20028;-84
2022/09/05 04:34:52;;;;;;;18.67;14.35;;;;;;;17.85;100.00;98933.38;4889305;29;20438;-84
2022/09/05 04:37:42;;;;;;;22.60;14.88;;;;;;;17.78;100.00;98947.88;4922332;29;20382;-84
2022/09/05 04:40:29;;;;;;;20.35;14.25;;;;;;;17.89;100.00;98959.47;4921652;29;20032;-83
2022/09/05 04:43:07;;;;;;;21.15;15.75;;;;;;;17.87;100.00;98953.56;4908855;29;20059;-84
2022/09/05 04:45:41;;;;;;;18.67;13.77;;;;;;;17.88;100.00;98947.19;4875371;29;20032;-84
2022/09/05 04:48:12;;;;;;;21.60;15.15;;;;;;;17.84;100.00;98945.03;4906927;29;20032;-84
2022/09/05 04:51:17;;;;;;;21.63;15.25;;;;;;;17.78;100.00;98947.88;4909337;29;20028;-84
2022/09/05 04:53:53;;;;;;;19.88;15.70;;;;;;;17.76;100.00;98956.09;4881295;29;20052;-84
2022/09/05 04:56:26;;;;;;;22.23;16.52;;;;;;;17.78;100.00;98958.47;4909887;29;20033;-84
2022/09/05 04:59:25;;;;;;;25.90;16.30;;;;;;;17.85;100.00;98962.56;4906053;29;20047;-83
2022/09/05 05:01:56;;;;;;;22.92;15.80;;;;;;;17.75;100.00;98972.25;4904066;29;20052;-84
2022/09/05 05:04:24;;;;;;;25.55;15.98;;;;;;;17.57;100.00;98971.47;4906183;29;20034;-84
2022/09/05 05:07:01;;;;;;;21.27;15.55;;;;;;;17.43;100.00;98960.38;4908903;29;20033;-84
2022/09/05 05:09:33;;;;;;;18.73;14.10;;;;;;;17.27;100.00;98962.78;4907552;29;20036;-85
2022/09/05 05:12:07;;;;;;;17.05;13.98;;;;;;;17.23;100.00;98972.25;4907156;29;20035;-84
2022/09/05 05:15:02;;;;;;;19.08;14.20;;;;;;;17.15;100.00;98972.66;4905059;29;20478;-84
2022/09/05 05:17:51;;;;;;;22.15;14.45;;;;;;;17.15;100.00;98977.16;4922140;29;20040;-84
2022/09/05 05:20:25;;;;;;;15.85;13.27;;;;;;;17.13;100.00;98985.38;4907166;29;20379;-83
2022/09/05 05:23:00;;;;;;;17.50;13.77;;;;;;;17.12;100.00;98981.09;4903766;29;20111;-84
2022/09/05 05:25:26;;;;;;;24.08;16.25;;;;;;;17.21;100.00;98982.31;4905965;29;20039;-84
2022/09/05 05:28:04;;;;;;;24.10;16.00;;;;;;;17.41;100.00;98989.00;4907398;29;20024;-83
2022/09/05 05:30:32;;;;;;;20.35;16.25;;;;;;;17.50;100.00;98989.41;4908634;29;20043;-84
2022/09/05 05:33:07;;;;;;;19.40;15.27;;;;;;;17.55;100.00;98985.00;4904803;29;20386;-84
2022/09/05 05:35:34;;;;;;;23.90;17.80;;;;;;;17.68;100.00;98980.38;4890595;29;20497;-83
2022/09/05 05:38:18;;;;;;;20.88;17.70;;;;;;;17.88;100.00;98990.50;4891254;29;20032;-84
2022/09/05 05:40:48;;;;;;;22.27;16.98;;;;;;;17.76;100.00;98979.97;4921852;29;20029;-85
2022/09/05 05:43:48;;;;;;;24.92;18.70;;;;;;;17.91;100.00;98997.19;4908258;29;20064;-85
2022/09/05 05:46:27;;;;;;;23.30;18.30;;;;;;;17.91;100.00;98994.53;4898081;29;20048;-83
2022/09/05 05:49:26;;;;;;;22.40;16.23;;;;;;;18.03;100.00;99005.09;4888539;29;20040;-84
2022/09/05 05:52:11;;;;;;;27.38;19.00;;;;;;;18.06;100.00;99002.72;4900423;29;20172;-84
2022/09/05 05:54:40;;;;;;;26.50;18.58;;;;;;;18.06;100.00;99008.03;4891502;29;20037;-84
2022/09/05 05:57:45;;;;;;;24.65;18.05;;;;;;;18.20;100.00;99010.34;4909619;29;20439;-84
2022/09/05 06:00:13;;;;;;;24.30;18.90;;;;;;;18.22;100.00;98997.63;4902170;29;20032;-84
2022/09/05 06:03:01;;;;;;;24.40;19.38;;;;;;;18.30;100.00;98994.56;4921784;29;20028;-83
2022/09/05 06:05:38;;;;;;;35.40;21.73;;;;;;;18.04;100.00;98986.22;4890877;29;20039;-84
2022/09/05 06:08:45;;;;;;;26.83;19.63;;;;;;;18.20;100.00;98992.56;4908423;29;20036;-83
2022/09/05 06:11:35;;;;;;;26.75;20.35;;;;;;;18.18;100.00;98983.22;4905872;29;20040;-84
2022/09/05 06:14:32;;;;;;;24.00;18.20;;;;;;;18.22;100.00;98987.00;4880923;29;20037;-83
2022/09/05 06:17:04;;;;;;;26.45;17.90;;;;;;;18.17;100.00;98987.72;4889171;29;20115;-84
2022/09/05 06:19:35;;;;;;;24.02;18.67;;;;;;;18.24;100.00;98992.84;4889893;29;20051;-85
2022/09/05 06:22:04;;;;;;;25.40;18.63;;;;;;;18.21;100.00;98988.03;4903038;29;20059;-84
2022/09/05 06:24:48;;;;;;;24.52;18.25;;;;;;;18.26;100.00;98982.78;4884755;29;20033;-85
2022/09/05 06:27:40;;;;;;;23.42;18.05;;;;;;;18.35;100.00;98981.31;4909943;29;20388;-86
2022/09/05 06:30:15;;;;;;;21.00;16.25;;;;;;;18.37;100.00;98979.22;4895649;29;20095;-85
2022/09/05 06:33:03;;;;;;;29.33;19.25;;;;;;;18.44;100.00;98986.19;4894177;29;20044;-85
2022/09/05 06:35:39;;;;;;;26.23;19.58;;;;;;;18.47;100.00;98988.34;4879821;29;20487;-84
2022/09/05 06:38:25;;;;;;;24.75;18.90;;;;;;;18.51;100.00;99002.78;4908644;29;20032;-83
2022/09/05 06:41:03;;;;;;;24.63;19.80;;;;;;;18.54;100.00;99004.94;4888832;29;20370;-84
2022/09/05 06:43:56;;;;;;;26.30;18.13;;;;;;;18.65;100.00;99003.97;4900699;29;20044;-83
2022/09/05 06:46:36;;;;;;;;;;;;;;;18.79;100.00;99003.59;4889284;29;20464;-83
2022/09/05 06:49:27;;;;;;;29.75;20.67;;;;;;;18.85;100.00;98999.94;4874775;29;19922;-84
2022/09/05 06:52:39;;;;;;;25.60;19.77;;;;;;;19.01;100.00;99000.94;4869969;29;20095;-84
2022/09/05 06:55:23;;;;;;;25.13;19.15;;;;;;;19.13;100.00;99004.22;4902274;29;20056;-83
2022/09/05 06:57:51;;;;;;;;;;;;;;;19.33;100.00;99023.31;4905544;29;20035;-82
2022/09/05 07:00:28;;;;;;;26.65;18.42;;;;;;;19.34;100.00;99011.63;4888669;29;19923;-82
2022/09/05 07:02:59;;;;;;;22.95;17.13;;;;;;;19.51;100.00;99016.81;4917150;29;20055;-84
2022/09/05 07:05:43;;;;;;;22.98;15.07;;;;;;;19.50;100.00;99015.19;4886955;29;20032;-87
2022/09/05 07:08:28;;;;;;;21.48;15.57;;;;;;;19.54;100.00;99013.63;4888375;29;20039;-84
2022/09/05 07:10:59;;;;;;;18.33;14.13;;;;;;;19.55;100.00;99013.38;4885081;29;20083;-85
2022/09/05 07:13:31;;;;;;;19.27;13.40;;;;;;;19.63;100.00;99016.63;4905173;29;20096;-85
2022/09/05 07:16:04;;;;;;;18.80;14.10;;;;;;;19.63;100.00;99012.13;4889153;29;20412;-85
2022/09/05 07:19:01;;;;;;;17.55;12.80;;;;;;;19.60;100.00;99012.63;4893054;29;20036;-85
2022/09/05 07:21:34;;;;;;;20.95;14.35;;;;;;;19.59;100.00;99015.53;4896140;29;20120;-85
2022/09/05 07:24:05;;;;;;;21.52;13.57;;;;;;;19.72;100.00;99025.75;4885878;29;20051;-83
2022/09/05 07:26:35;;;;;;;19.55;14.05;;;;;;;19.79;100.00;99028.22;4877650;29;20368;-84
2022/09/05 07:29:06;;;;;;;18.30;13.20;;;;;;;19.81;100.00;99018.09;4906220;29;20032;-84
2022/09/05 07:31:36;;;;;;;21.58;12.48;;;;;;;19.93;100.00;99031.25;4886982;29;20040;-85
2022/09/05 07:34:29;;;;;;;16.10;11.48;;;;;;;20.11;100.00;99048.66;4888389;29;20498;-85
2022/09/05 07:36:57;;;;;;;13.50;11.87;;;;;;;20.11;100.00;99049.50;4882284;29;20045;-85
2022/09/05 07:39:36;;;;;;;17.02;12.23;;;;;;;20.17;100.00;99041.50;4872468;29;20037;-85
2022/09/05 07:42:10;;;;;;;15.10;10.93;;;;;;;20.20;100.00;99046.31;4887630;29;20028;-85
2022/09/05 07:44:48;;;;;;;16.90;10.70;;;;;;;20.52;100.00;99058.75;4873927;29;20685;-85
2022/09/05 07:47:25;;;;;;;15.93;10.80;;;;;;;20.26;100.00;99048.75;4867880;29;20089;-85
2022/09/05 07:49:51;;;;;;;16.67;10.25;;;;;;;20.36;100.00;99052.56;4887680;29;20223;-85
2022/09/05 07:52:25;;;;;;;16.13;10.20;;;;;;;20.32;100.00;99049.59;4888388;29;20493;-85
2022/09/05 07:54:53;;;;;;;14.63;8.93;;;;;;;20.29;100.00;99025.31;4884591;29;20057;-84
2022/09/05 07:57:27;;;;;;;15.15;9.75;;;;;;;20.40;100.00;99046.44;4890707;29;20040;-85
2022/09/05 08:00:18;;;;;;;14.10;9.90;;;;;;;20.55;100.00;99055.56;4901794;29;20403;-85
2022/09/05 08:02:45;;;;;;;13.95;9.60;;;;;;;20.64;100.00;99059.34;4905319;29;20084;-85
2022/09/05 08:05:18;;;;;;;11.07;9.10;;;;;;;20.83;100.00;99064.22;4889522;29;20088;-85
2022/09/05 08:07:53;;;;;;;12.85;8.73;;;;;;;21.04;100.00;99065.09;4902446;29;20040;-85
2022/09/05 08:10:27;;;;;;;13.25;9.68;;;;;;;20.95;100.00;99072.81;4886499;29;20039;-86
2022/09/05 08:12:57;;;;;;;12.15;9.48;;;;;;;21.03;100.00;99062.69;4855967;29;20036;-86
2022/09/05 08:15:26;;;;;;;11.00;7.75;;;;;;;21.25;100.00;99049.94;4891214;29;20482;-85
2022/09/05 08:18:14;;;;;;;10.18;8.15;;;;;;;21.38;100.00;99053.13;4869456;29;20026;-84
2022/09/05 08:20:54;;;;;;;9.50;8.32;;;;;;;21.48;100.00;99052.34;4891906;29;20052;-85
2022/09/05 08:23:29;;;;;;;15.27;9.13;;;;;;;21.61;100.00;99053.66;4893238;29;20540;-86
2022/09/05 08:26:07;;;;;;;11.85;7.93;;;;;;;21.72;100.00;99060.66;4906250;29;20058;-84
2022/09/05 08:29:02;;;;;;;10.25;7.60;;;;;;;21.56;100.00;99043.81;4898314;29;20099;-82
2022/09/05 08:31:43;;;;;;;12.50;7.40;;;;;;;21.54;100.00;99065.44;4891132;29;20398;-83
2022/09/05 08:34:17;;;;;;;9.23;6.63;;;;;;;21.15;100.00;99059.78;4877328;29;20037;-85
2022/09/05 08:36:49;;;;;;;9.40;5.60;;;;;;;20.93;100.00;99079.47;4889164;29;20103;-82
2022/09/05 08:39:19;;;;;;;8.37;6.83;;;;;;;20.78;100.00;99078.34;4909222;29;20422;-84
2022/09/05 08:41:45;;;;;;;10.98;6.75;;;;;;;20.64;100.00;99077.22;4919180;29;20452;-82
2022/09/05 08:44:17;;;;;;;11.25;8.43;;;;;;;20.49;100.00;99078.72;4900820;29;20045;-81
2022/09/05 08:46:50;;;;;;;12.98;6.78;;;;;;;20.59;100.00;99063.84;4899021;29;20036;-83
2022/09/05 08:49:51;;;;;;;10.73;6.50;;;;;;;20.84;100.00;99071.19;4868300;29;20135;-84
2022/09/05 08:52:43;;;;;;;8.73;6.95;;;;;;;21.02;100.00;99069.09;4891914;29;20119;-84
2022/09/05 08:55:20;;;;;;;10.82;6.65;;;;;;;21.35;100.00;99069.69;4905322;29;20070;-84
2022/09/05 08:58:14;;;;;;;9.60;6.47;;;;;;;21.44;100.00;99073.44;4906221;29;20032;-84
2022/09/05 09:00:50;;;;;;;9.25;5.85;;;;;;;21.53;100.00;99066.50;4905907;29;20024;-82
2022/09/05 09:03:31;;;;;;;8.93;5.50;;;;;;;21.71;100.00;99072.41;4882276;29;20130;-84
2022/09/05 09:06:27;;;;;;;10.57;6.13;;;;;;;21.71;100.00;99067.06;4922433;29;20111;-84
2022/09/05 09:09:13;;;;;;;7.55;5.60;;;;;;;21.62;100.00;99068.66;4867266;29;20099;-84
2022/09/05 09:12:25;;;;;;;11.15;5.70;;;;;;;21.72;100.00;99076.69;4848115;29;20421;-84
2022/09/05 09:15:09;;;;;;;9.57;5.47;;;;;;;21.72;100.00;99074.00;4873535;29;20131;-84
2022/09/05 09:17:46;;;;;;;12.85;6.60;;;;;;;21.62;100.00;99077.47;4921751;29;20084;-82
2022/09/05 09:20:14;;;;;;;14.25;6.43;;;;;;;21.60;100.00;99070.75;4902981;29;20028;-83
2022/09/05 09:22:55;;;;;;;9.00;6.40;;;;;;;21.67;100.00;99066.78;4870698;29;20112;-83
2022/09/05 09:25:29;;;;;;;11.18;6.03;;;;;;;21.24;100.00;99069.69;4883688;29;20386;-82
2022/09/05 09:28:32;;;;;;;11.18;5.70;;;;;;;21.21;100.00;99069.41;4881182;29;20049;-84
2022/09/05 09:31:09;;;;;;;8.80;5.40;;;;;;;20.94;100.00;99057.09;4885611;29;20037;-84
2022/09/05 09:33:58;;;;;;;8.02;5.63;;;;;;;21.07;100.00;99075.25;4887655;29;20415;-83
2022/09/05 09:36:48;;;;;;;10.07;5.82;;;;;;;21.02;100.00;99061.91;4868621;29;20514;-84
2022/09/05 09:39:23;;;;;;;10.18;5.53;;;;;;;21.00;100.00;99064.03;4867303;29;20041;-84
2022/09/05 09:42:07;;;;;;;9.93;5.38;;;;;;;21.11;100.00;99060.28;4890513;29;20498;-83
2022/09/05 09:45:14;;;;;;;10.40;6.03;;;;;;;21.31;100.00;99060.63;4870467;29;20059;-84
2022/09/05 09:47:59;;;;;;;10.20;5.95;;;;;;;21.36;100.00;99065.94;4881190;29;20452;-83
2022/09/05 09:50:24;;;;;;;13.07;5.50;;;;;;;21.39;100.00;99070.75;4865128;29;20032;-82
2022/09/05 09:53:19;;;;;;;8.35;5.13;;;;;;;21.45;100.00;99069.72;4883074;29;20040;-85
2022/09/05 09:56:09;;;;;;;12.35;5.40;;;;;;;21.74;100.00;99071.88;4867718;29;20061;-84
2022/09/05 09:58:49;;;;;;;11.18;5.28;;;;;;;22.27;100.00;99073.41;4903528;29;20039;-85
2022/09/05 10:01:37;;;;;;;7.80;4.80;;;;;;;22.43;100.00;99070.69;4886440;29;20032;-85
2022/09/05 10:04:21;;;;;;;9.50;3.75;;;;;;;22.31;100.00;99066.44;4882655;29;20025;-84
2022/09/05 10:07:16;;;;;;;8.05;4.40;;;;;;;22.22;100.00;99062.75;4886435;29;20036;-85
2022/09/05 10:09:58;;;;;;;6.88;4.05;;;;;;;22.31;100.00;99077.13;4856567;29;20028;-84
2022/09/05 10:12:30;;;;;;;6.47;4.05;;;;;;;22.42;100.00;99074.44;4870799;29;20158;-85
2022/09/05 10:15:11;;;;;;;6.60;3.90;;;;;;;22.42;100.00;99069.09;4870439;29;20049;-84
2022/09/05 10:17:52;;;;;;;9.68;3.60;;;;;;;22.44;100.00;99075.75;4882643;29;20035;-84
2022/09/05 10:21:00;;;;;;;8.48;4.22;;;;;;;22.48;100.00;99073.38;4887370;29;20052;-83
2022/09/05 10:23:44;;;;;;;5.70;3.85;;;;;;;22.47;100.00;99066.44;4858159;29;20491;-84
2022/09/05 10:26:15;;;;;;;8.52;4.03;;;;;;;22.51;100.00;99080.84;4866238;29;20502;-83
2022/09/05 10:28:41;;;;;;;8.40;3.83;;;;;;;22.56;100.00;99074.69;4889093;29;20422;-85
2022/09/05 10:31:32;;;;;;;8.90;4.28;;;;;;;22.63;100.00;99059.13;4885096;29;20040;-84
2022/09/05 10:34:27;;;;;;;10.00;3.90;;;;;;;22.88;100.00;99071.59;4902520;29;20037;-84
2022/09/05 10:37:02;;;;;;;7.75;3.67;;;;;;;22.85;100.00;99060.66;4883684;29;20037;-85
2022/09/05 10:39:32;;;;;;;9.23;3.75;;;;;;;22.78;100.00;99060.94;4868852;29;20108;-84
2022/09/05 10:42:14;;;;;;;7.90;3.20;;;;;;;22.76;100.00;99055.06;4886714;29;20460;-86
2022/09/05 10:44:53;;;;;;;6.72;3.33;;;;;;;22.76;100.00;99063.09;4872176;29;20091;-83
2022/09/05 10:47:27;;;;;;;5.10;3.20;;;;;;;22.63;100.00;99051.94;4885726;29;20569;-85
2022/09/05 10:50:31;;;;;;;4.72;3.17;;;;;;;22.72;100.00;99035.28;4885316;29;20041;-86
2022/09/05 10:53:12;;;;;;;6.57;3.05;;;;;;;22.80;100.00;99037.41;4862193;29;20032;-86
2022/09/05 10:55:54;;;;;;;6.47;2.92;;;;;;;22.81;100.00;99045.16;4868320;29;20048;-86
2022/09/05 10:58:33;;;;;;;7.95;3.55;;;;;;;22.72;100.00;99019.25;4890430;29;20551;-88
2022/09/05 11:01:04;;;;;;;6.55;2.63;;;;;;;22.30;100.00;98981.16;4900419;29;20036;-86
2022/09/05 11:04:12;;;;;;;8.25;3.08;;;;;;;22.61;100.00;99030.00;4901817;29;20029;-87
2022/09/05 11:06:41;;;;;;;4.05;2.65;;;;;;;22.66;100.00;99043.34;4875334;29;20041;-87
2022/09/05 11:09:36;;;;;;;7.30;2.70;;;;;;;22.62;100.00;99031.59;4871874;29;20510;-87
2022/09/05 11:12:27;;;;;;;5.55;2.33;;;;;;;22.67;100.00;99028.91;4862967;29;20049;-87
2022/09/05 11:14:56;;;;;;;8.90;2.95;;;;;;;22.77;100.00;99030.72;4888123;29;20391;-87
2022/09/05 11:17:51;;;;;;;6.43;2.60;;;;;;;22.86;100.00;99030.13;4869092;29;20048;-88
2022/09/05 11:20:58;;;;;;;5.15;2.60;;;;;;;22.98;100.00;99033.28;4888593;29;20033;-88
2022/09/05 11:23:37;;;;;;;5.78;2.58;;;;;;;23.05;100.00;99023.06;4886655;29;20147;-89
2022/09/05 11:26:06;;;;;;;8.93;2.95;;;;;;;23.22;100.00;99036.06;4888971;29;20546;-85
2022/09/05 11:28:51;;;;;;;10.50;3.50;;;;;;;23.09;100.00;99028.66;4872637;29;20483;-86
2022/09/05 11:31:22;;;;;;;7.53;2.78;;;;;;;23.02;100.00;99012.13;4904473;29;20078;-88
2022/09/05 11:34:10;;;;;;;7.22;2.67;;;;;;;23.37;100.00;99031.69;4903418;29;20068;-86
2022/09/05 11:36:51;;;;;;;7.03;2.53;;;;;;;23.46;100.00;99029.22;4907638;29;20457;-87
2022/09/05 11:39:54;;;;;;;4.15;2.70;;;;;;;23.74;100.00;99034.88;4903882;29;20047;-87
2022/09/05 11:42:44;;;;;;;7.90;3.33;;;;;;;23.77;100.00;99029.75;4908185;29;20040;-87
2022/09/05 11:45:49;;;;;;;8.60;2.90;;;;;;;24.15;100.00;99033.69;4903468;29;20024;-86
2022/09/05 11:48:37;;;;;;;8.95;3.20;;;;;;;24.01;100.00;99030.88;4838980;29;20091;-87
2022/09/05 11:52:00;;;;;;;7.72;2.80;;;;;;;24.13;100.00;99027.81;4869515;29;20482;-88
2022/09/05 11:55:04;;;;;;;6.65;2.47;;;;;;;24.36;100.00;99024.31;4837231;29;20069;-85
2022/09/05 11:57:47;;;;;;;7.97;2.58;;;;;;;24.56;100.00;99025.16;4837751;29;20046;-85
2022/09/05 12:00:31;;;;;;;;;;;;;;;24.54;100.00;99038.06;4878317;29;20060;-85
2022/09/05 12:03:17;;;;;;;;;;;;;;;24.61;100.00;99025.13;4893291;29;20324;-84
2022/09/05 12:06:15;;;;;;;5.60;2.58;;;;;;;24.61;100.00;99019.75;4908050;29;20334;-84
2022/09/05 12:08:47;;;;;;;6.20;2.50;;;;;;;24.52;100.00;99029.50;4911831;29;20035;-85
2022/09/05 12:11:33;;;;;;;6.28;2.88;;;;;;;24.34;100.00;99028.41;4911210;29;20048;-84
2022/09/05 12:14:41;;;;;;;10.88;3.08;;;;;;;24.28;100.00;99019.59;4905002;29;20039;-84
2022/09/05 12:17:35;;;;;;;9.05;3.03;;;;;;;24.29;100.00;99037.28;4896271;29;20032;-85
2022/09/05 12:20:21;;;;;;;6.97;3.03;;;;;;;24.28;100.00;99027.66;4922698;29;20028;-83
2022/09/05 12:23:01;;;;;;;10.32;3.10;;;;;;;24.17;100.00;99028.84;4887671;29;20033;-83
2022/09/05 12:25:37;;;;;;;7.93;2.88;;;;;;;24.29;100.00;99026.56;4888102;29;20041;-84
2022/09/05 12:28:06;;;;;;;8.30;2.72;;;;;;;24.41;100.00;99033.41;4886928;29;20081;-84